createdAt,value
2023-05-14T00:01:39.040Z,54.83
2023-05-14T00:04:42.433Z,55.25
2023-05-14T00:07:46.090Z,55.09
2023-05-14T00:10:49.443Z,55.11
2023-05-14T00:13:54.617Z,55.45
2023-05-14T00:16:59.520Z,55.11
2023-05-14T00:20:03.197Z,55.63
2023-05-14T00:23:06.583Z,55.53
2023-05-14T00:26:10.353Z,55.90
2023-05-14T00:29:16.782Z,55.92
2023-05-14T00:32:20.744Z,56.19
2023-05-14T00:35:24.447Z,56.48
2023-05-14T00:38:28.728Z,56.62
2023-05-14T00:41:32.199Z,56.04
2023-05-14T00:44:37.505Z,56.33
2023-05-14T00:47:41.338Z,55.83
2023-05-14T00:50:45.319Z,56.01
2023-05-14T00:53:49.935Z,56.65
2023-05-14T00:56:55.136Z,56.20
2023-05-14T01:00:00.484Z,56.92
2023-05-14T01:03:07.634Z,56.28
2023-05-14T01:06:19.585Z,56.85
2023-05-14T01:09:34.564Z,57.64
2023-05-14T01:12:48.958Z,57.09
2023-05-14T01:15:58.652Z,57.59
2023-05-14T01:19:06.629Z,57.19
2023-05-14T01:22:12.796Z,57.20
2023-05-14T01:25:16.268Z,57.54
2023-05-14T01:28:26.369Z,57.09
2023-05-14T01:31:34.865Z,57.99
2023-05-14T01:34:41.974Z,57.27
2023-05-14T01:37:50.084Z,57.37
2023-05-14T01:40:55.816Z,57.88
2023-05-14T01:43:59.807Z,57.97
2023-05-14T01:47:03.809Z,57.97
2023-05-14T01:50:08.435Z,57.70
2023-05-14T01:53:13.755Z,58.13
2023-05-14T01:56:17.270Z,58.19
2023-05-14T01:59:21.116Z,58.07
2023-05-14T02:02:24.640Z,58.25
2023-05-14T02:05:28.578Z,58.24
2023-05-14T02:08:34.042Z,58.42
2023-05-14T02:11:37.980Z,58.19
2023-05-14T02:14:41.671Z,58.76
2023-05-14T02:17:45.714Z,58.42
2023-05-14T02:20:49.256Z,59.05
2023-05-14T02:23:56.113Z,58.31
2023-05-14T02:27:01.002Z,58.98
2023-05-14T02:30:06.217Z,59.11
2023-05-14T02:33:09.944Z,58.59
2023-05-14T02:36:13.894Z,59.36
2023-05-14T02:39:18.755Z,59.86
2023-05-14T02:42:22.806Z,59.96
2023-05-14T02:45:26.718Z,59.52
2023-05-14T02:48:30.630Z,59.45
2023-05-14T02:51:34.068Z,59.90
2023-05-14T02:54:39.664Z,60.59
2023-05-14T02:57:43.206Z,60.42
2023-05-14T03:00:47.182Z,60.46
2023-05-14T03:03:50.997Z,60.26
2023-05-14T03:06:55.437Z,60.54
2023-05-14T03:10:00.777Z,60.80
2023-05-14T03:13:04.582Z,60.44
2023-05-14T03:16:08.742Z,60.38
2023-05-14T03:19:13.606Z,60.88
2023-05-14T03:22:17.330Z,60.34
2023-05-14T03:25:22.559Z,60.30
2023-05-14T03:28:26.308Z,60.74
2023-05-14T03:31:30.116Z,60.64
2023-05-14T03:34:33.992Z,60.71
2023-05-14T03:37:38.128Z,60.09
2023-05-14T03:40:43.123Z,60.30
2023-05-14T03:43:46.942Z,60.39
2023-05-14T03:46:50.374Z,60.75
2023-05-14T03:49:54.388Z,60.76
2023-05-14T03:52:57.836Z,60.19
2023-05-14T03:56:03.323Z,60.81
2023-05-14T03:59:06.854Z,59.84
2023-05-14T04:02:10.965Z,60.34
2023-05-14T04:05:14.439Z,60.38
2023-05-14T04:08:18.923Z,59.64
2023-05-14T04:11:23.794Z,60.28
2023-05-14T04:14:27.577Z,59.41
2023-05-14T04:17:31.150Z,60.34
2023-05-14T04:20:35.180Z,60.04
2023-05-14T04:23:38.663Z,59.45
2023-05-14T04:26:43.715Z,59.50
2023-05-14T04:29:47.085Z,60.07
2023-05-14T04:32:51.432Z,59.32
2023-05-14T04:35:55.151Z,59.35
2023-05-14T04:38:59.105Z,59.06
2023-05-14T04:42:03.918Z,58.92
2023-05-14T04:45:09.197Z,58.96
2023-05-14T04:48:12.690Z,58.67
2023-05-14T04:51:16.486Z,58.71
2023-05-14T04:54:19.958Z,58.60
2023-05-14T04:57:25.057Z,58.45
2023-05-14T05:00:28.628Z,58.17
2023-05-14T05:03:33.183Z,58.03
2023-05-14T05:06:36.592Z,58.18
2023-05-14T05:09:40.262Z,57.89
2023-05-14T05:12:45.057Z,58.05
2023-05-14T05:15:48.942Z,57.03
2023-05-14T05:18:52.411Z,57.45
2023-05-14T05:21:56.418Z,57.72
2023-05-14T05:25:00.102Z,57.22
2023-05-14T05:28:05.839Z,57.08
2023-05-14T05:31:09.396Z,57.03
2023-05-14T05:34:13.696Z,56.74
2023-05-14T05:37:17.058Z,57.20
2023-05-14T05:40:20.912Z,57.71
2023-05-14T05:43:25.744Z,57.09
2023-05-14T05:46:29.652Z,56.76
2023-05-14T05:49:33.550Z,56.86
2023-05-14T05:52:37.221Z,56.43
2023-05-14T05:55:42.254Z,55.96
2023-05-14T05:58:47.393Z,56.68
2023-05-14T06:01:51.142Z,56.29
2023-05-14T06:04:55.032Z,56.07
2023-05-14T06:07:58.464Z,55.95
2023-05-14T06:11:02.282Z,55.26
2023-05-14T06:14:07.433Z,55.75
2023-05-14T06:17:11.944Z,56.19
2023-05-14T06:20:15.562Z,56.19
2023-05-14T06:23:19.305Z,55.19
2023-05-14T06:26:23.440Z,54.81
2023-05-14T06:29:28.720Z,55.18
2023-05-14T06:32:32.169Z,54.50
2023-05-14T06:35:35.881Z,55.20
2023-05-14T06:38:39.305Z,54.83
2023-05-14T06:41:42.936Z,54.68
2023-05-14T06:44:52.545Z,54.41
2023-05-14T06:47:56.841Z,53.97
2023-05-14T06:51:01.203Z,54.45
2023-05-14T06:54:08.018Z,53.87
2023-05-14T06:57:11.413Z,54.33
2023-05-14T07:00:18.653Z,53.69
2023-05-14T07:03:22.701Z,53.89
2023-05-14T07:06:29.266Z,53.73
2023-05-14T07:09:32.683Z,53.56
2023-05-14T07:12:36.576Z,52.92
2023-05-14T07:15:41.418Z,53.04
2023-05-14T07:18:46.637Z,53.31
2023-05-14T07:21:50.084Z,52.62
2023-05-14T07:24:53.952Z,52.88
2023-05-14T07:27:57.368Z,53.06
2023-05-14T07:31:02.627Z,52.56
2023-05-14T07:34:06.065Z,52.07
2023-05-14T07:37:10.370Z,51.67
2023-05-14T07:40:14.119Z,51.68
2023-05-14T07:43:17.829Z,50.37
2023-05-14T07:46:23.908Z,50.32
2023-05-14T07:49:27.740Z,50.45
2023-05-14T07:52:31.164Z,49.48
2023-05-14T07:55:34.946Z,50.45
2023-05-14T07:58:38.273Z,50.01
2023-05-14T08:01:43.446Z,49.62
2023-05-14T08:04:47.357Z,49.64
2023-05-14T08:07:51.356Z,49.70
2023-05-14T08:10:54.790Z,48.91
2023-05-14T08:13:58.586Z,49.25
2023-05-14T08:17:03.563Z,48.57
2023-05-14T08:20:09.904Z,48.34
2023-05-14T08:23:13.294Z,48.66
2023-05-14T08:26:17.126Z,48.22
2023-05-14T08:29:20.692Z,48.33
2023-05-14T08:32:25.881Z,48.15
2023-05-14T08:35:29.235Z,47.77
2023-05-14T08:38:32.994Z,47.81
2023-05-14T08:41:37.468Z,47.67
2023-05-14T08:44:49.941Z,48.08
2023-05-14T08:47:56.934Z,47.93
2023-05-14T08:51:01.811Z,47.66
2023-05-14T08:54:07.003Z,47.83
2023-05-14T08:57:11.593Z,48.03
2023-05-14T09:00:16.309Z,47.96
2023-05-14T09:03:23.169Z,47.58
2023-05-14T09:06:27.392Z,46.73
2023-05-14T09:09:32.126Z,46.93
2023-05-14T09:20:32.499Z,46.45
2023-05-14T09:23:44.896Z,46.38
2023-05-14T09:26:52.788Z,45.74
2023-05-14T09:29:56.404Z,46.09
2023-05-14T09:32:59.828Z,45.84
2023-05-14T09:36:05.210Z,45.47
2023-05-14T09:39:08.665Z,44.92
2023-05-14T09:42:12.341Z,44.92
2023-05-14T09:45:16.216Z,44.90
2023-05-14T09:48:20.199Z,45.68
2023-05-14T09:51:25.783Z,45.08
2023-05-14T09:54:30.142Z,44.66
2023-05-14T09:57:33.648Z,44.19
2023-05-14T10:00:37.966Z,44.29
2023-05-14T10:03:42.034Z,43.86
2023-05-14T10:06:52.342Z,43.60
2023-05-14T10:10:02.944Z,43.82
2023-05-14T10:13:15.422Z,43.91
2023-05-14T10:16:28.386Z,43.53
2023-05-14T10:19:35.487Z,42.98
2023-05-14T10:22:41.007Z,43.54
2023-05-14T10:25:45.554Z,43.26
2023-05-14T10:28:49.471Z,42.97
2023-05-14T10:31:55.509Z,43.06
2023-05-14T10:35:03.089Z,42.82
2023-05-14T10:38:10.929Z,42.48
2023-05-14T10:41:17.865Z,42.44
2023-05-14T10:44:23.135Z,42.95
2023-05-14T10:47:28.370Z,41.70
2023-05-14T10:50:32.447Z,41.32
2023-05-14T10:53:39.783Z,40.94
2023-05-14T10:56:46.937Z,39.99
2023-05-14T10:59:54.956Z,40.18
2023-05-14T11:02:59.562Z,39.55
2023-05-14T11:06:05.359Z,39.53
2023-05-14T11:09:11.703Z,38.78
2023-05-14T11:12:15.425Z,38.76
2023-05-14T11:15:22.273Z,38.64
2023-05-14T11:18:29.705Z,37.73
2023-05-14T11:21:33.755Z,37.85
2023-05-14T11:24:39.139Z,37.33
2023-05-14T11:27:45.545Z,37.71
2023-05-14T11:30:49.463Z,37.46
2023-05-14T11:33:54.279Z,37.51
2023-05-14T11:36:57.678Z,37.04
2023-05-14T11:40:02.971Z,36.73
2023-05-14T11:43:06.483Z,36.47
2023-05-14T11:46:19.131Z,36.66
2023-05-14T11:49:23.762Z,35.18
2023-05-14T11:52:27.730Z,35.45
2023-05-14T11:55:35.771Z,34.98
2023-05-14T11:58:39.590Z,34.64
2023-05-14T12:01:43.024Z,33.96
2023-05-14T12:04:52.408Z,33.63
2023-05-14T12:07:56.130Z,32.95
2023-05-14T12:11:02.528Z,32.98
2023-05-14T12:14:13.355Z,32.42
2023-05-14T12:17:19.804Z,33.51
2023-05-14T12:20:26.320Z,33.20
2023-05-14T12:23:32.206Z,33.25
2023-05-14T12:26:38.804Z,33.47
2023-05-14T12:29:44.466Z,33.88
2023-05-14T12:32:48.891Z,34.26
2023-05-14T12:35:53.824Z,33.91
2023-05-14T12:39:03.544Z,33.64
2023-05-14T12:42:08.870Z,34.36
2023-05-14T12:45:13.173Z,34.73
2023-05-14T12:48:16.938Z,34.96
2023-05-14T12:51:20.404Z,34.81
2023-05-14T12:54:24.357Z,34.84
2023-05-14T12:57:30.242Z,34.22
2023-05-14T13:00:34.031Z,35.17
2023-05-14T13:03:37.476Z,34.69
2023-05-14T13:06:41.601Z,35.45
2023-05-14T13:09:45.056Z,35.26
2023-05-14T13:12:50.649Z,35.44
2023-05-14T13:15:55.554Z,35.53
2023-05-14T13:18:59.315Z,35.58
2023-05-14T13:22:02.736Z,36.11
2023-05-14T13:25:07.984Z,36.00
2023-05-14T13:28:12.899Z,36.31
2023-05-14T13:31:16.840Z,36.37
2023-05-14T13:34:20.596Z,36.27
2023-05-14T13:37:25.616Z,36.65
2023-05-14T13:40:29.025Z,36.39
2023-05-14T13:43:36.577Z,37.04
2023-05-14T13:46:40.084Z,36.87
2023-05-14T13:49:44.472Z,36.80
2023-05-14T13:52:47.859Z,37.03
2023-05-14T13:55:56.254Z,36.94
2023-05-14T13:59:01.125Z,36.72
2023-05-14T14:02:05.830Z,37.24
2023-05-14T14:05:10.487Z,37.47
2023-05-14T14:08:23.374Z,37.25
2023-05-14T14:11:28.007Z,37.49
2023-05-14T14:14:33.285Z,37.72
2023-05-14T14:17:36.860Z,38.06
2023-05-14T14:20:40.641Z,37.67
2023-05-14T14:23:43.969Z,36.83
2023-05-14T14:26:47.588Z,36.78
2023-05-14T14:29:52.594Z,35.83
2023-05-14T14:32:57.023Z,35.18
2023-05-14T14:36:00.465Z,34.01
2023-05-14T14:39:04.856Z,33.63
2023-05-14T14:42:08.604Z,33.06
2023-05-14T14:45:14.117Z,32.23
2023-05-14T14:48:26.304Z,32.91
2023-05-14T14:51:30.261Z,33.62
2023-05-14T14:54:33.725Z,33.33
2023-05-14T14:57:37.376Z,34.21
2023-05-14T15:00:42.353Z,34.55
2023-05-14T15:03:48.227Z,35.15
2023-05-14T15:06:51.688Z,35.92
2023-05-14T15:09:55.484Z,36.33
2023-05-14T15:12:59.985Z,36.44
2023-05-14T15:16:05.214Z,37.00
2023-05-14T15:19:08.937Z,37.50
2023-05-14T15:22:13.181Z,38.12
2023-05-14T15:25:16.784Z,38.20
2023-05-14T15:28:20.736Z,38.60
2023-05-14T15:31:25.928Z,38.77
2023-05-14T15:34:29.796Z,38.59
2023-05-14T15:37:39.230Z,38.68
2023-05-14T15:40:42.979Z,38.81
2023-05-14T15:43:46.413Z,39.15
2023-05-14T15:46:51.842Z,39.22
2023-05-14T15:49:55.576Z,39.66
2023-05-14T15:52:59.309Z,39.43
2023-05-14T15:56:02.742Z,40.20
2023-05-14T15:59:06.380Z,40.05
2023-05-14T16:02:11.879Z,40.33
2023-05-14T16:05:16.020Z,40.32
2023-05-14T16:08:19.401Z,40.55
2023-05-14T16:11:23.060Z,40.17
2023-05-14T16:14:26.557Z,40.77
2023-05-14T16:17:32.812Z,41.11
2023-05-14T16:20:36.277Z,41.05
2023-05-14T16:23:39.933Z,41.07
2023-05-14T16:26:43.589Z,41.39
2023-05-14T16:29:47.376Z,40.87
2023-05-14T16:32:52.454Z,41.40
2023-05-14T16:35:56.284Z,41.71
2023-05-14T16:39:07.087Z,41.63
2023-05-14T16:42:11.333Z,41.82
2023-05-14T16:45:14.997Z,41.83
2023-05-14T16:48:20.036Z,41.81
2023-05-14T16:51:23.934Z,42.29
2023-05-14T16:54:27.612Z,42.43
2023-05-14T16:57:31.340Z,42.45
2023-05-14T17:00:35.002Z,43.12
2023-05-14T17:03:39.954Z,42.98
2023-05-14T17:06:43.646Z,42.85
2023-05-14T17:09:47.011Z,43.07
2023-05-14T17:12:50.674Z,43.22
2023-05-14T17:16:13.154Z,43.36
2023-05-14T17:19:17.834Z,43.39
2023-05-14T17:22:21.789Z,43.60
2023-05-14T17:25:26.414Z,43.52
2023-05-14T17:28:30.960Z,43.71
2023-05-14T17:31:34.397Z,43.67
2023-05-14T17:34:40.068Z,44.26
2023-05-14T17:37:44.119Z,44.14
2023-05-14T17:40:48.000Z,44.18
2023-05-14T17:43:52.458Z,44.29
2023-05-14T17:46:56.810Z,44.91
2023-05-14T17:50:01.619Z,44.74
2023-05-14T17:53:05.455Z,44.80
2023-05-14T17:56:08.864Z,45.20
2023-05-14T17:59:12.882Z,45.00
2023-05-14T18:02:16.267Z,45.34
2023-05-14T18:05:21.616Z,45.19
2023-05-14T18:08:25.079Z,45.01
2023-05-14T18:11:33.657Z,45.35
2023-05-14T18:14:37.110Z,46.11
2023-05-14T18:17:41.045Z,45.27
2023-05-14T18:20:45.906Z,45.93
2023-05-14T18:23:50.108Z,45.40
2023-05-14T18:26:53.526Z,45.98
2023-05-14T18:29:57.258Z,45.61
2023-05-14T18:33:00.806Z,45.94
2023-05-14T18:36:06.840Z,46.01
2023-05-14T18:39:10.709Z,45.97
2023-05-14T18:42:14.426Z,46.06
2023-05-14T18:45:17.972Z,46.36
2023-05-14T18:48:21.960Z,46.20
2023-05-14T18:51:26.746Z,46.00
2023-05-14T18:54:30.485Z,46.18
2023-05-14T18:57:33.984Z,46.00
2023-05-14T19:00:37.759Z,46.18
2023-05-14T19:03:42.260Z,46.36
2023-05-14T19:06:47.825Z,46.49
2023-05-14T19:09:51.198Z,46.57
2023-05-14T19:12:54.904Z,46.58
2023-05-14T19:15:58.573Z,46.41
2023-05-14T19:19:02.454Z,46.69
2023-05-14T19:22:07.600Z,46.96
2023-05-14T19:25:12.314Z,47.00
2023-05-14T19:28:16.575Z,47.44
2023-05-14T19:31:20.792Z,47.38
2023-05-14T19:34:24.177Z,47.86
2023-05-14T19:37:29.751Z,47.81
2023-05-14T19:40:33.113Z,48.08
2023-05-14T19:43:36.811Z,47.85
2023-05-14T19:46:40.526Z,48.03
2023-05-14T19:49:44.592Z,47.79
2023-05-14T19:52:49.603Z,48.15
2023-05-14T19:55:53.288Z,48.17
2023-05-14T19:58:56.778Z,48.44
2023-05-14T20:02:01.139Z,48.27
2023-05-14T20:05:06.690Z,48.43
2023-05-14T20:08:12.097Z,48.60
2023-05-14T20:11:17.900Z,48.81
2023-05-14T20:14:21.542Z,49.18
2023-05-14T20:17:25.191Z,50.02
2023-05-14T20:20:32.181Z,50.28
2023-05-14T20:23:37.955Z,51.49
2023-05-14T20:26:41.552Z,51.73
2023-05-14T20:29:46.642Z,53.30
2023-05-14T20:32:50.470Z,53.24
2023-05-14T20:35:53.900Z,53.64
2023-05-14T20:39:00.616Z,55.00
2023-05-14T20:42:04.012Z,54.65
2023-05-14T20:45:09.383Z,55.47
2023-05-14T20:48:16.146Z,55.62
2023-05-14T20:51:21.537Z,56.71
2023-05-14T20:54:26.301Z,57.34
2023-05-14T20:57:30.251Z,56.54
2023-05-14T21:00:33.599Z,57.67
2023-05-14T21:03:37.965Z,57.55
2023-05-14T21:06:41.691Z,58.31
2023-05-14T21:09:52.107Z,58.62
2023-05-14T21:12:55.456Z,58.71
2023-05-14T21:16:00.226Z,58.73
2023-05-14T21:19:03.707Z,58.56
2023-05-14T21:22:08.441Z,58.49
2023-05-14T21:25:13.209Z,59.66
2023-05-14T21:28:16.841Z,59.10
2023-05-14T21:31:45.238Z,61.33
2023-05-14T21:34:48.983Z,59.87
2023-05-14T21:37:52.849Z,60.07
2023-05-14T21:40:57.890Z,60.36
2023-05-14T21:44:01.498Z,60.42
2023-05-14T21:47:05.862Z,60.78
2023-05-14T21:50:10.538Z,61.28
2023-05-14T21:53:14.202Z,61.39
2023-05-14T21:56:19.150Z,61.64
2023-05-14T21:59:22.931Z,62.33
2023-05-14T22:02:26.556Z,62.13
2023-05-14T22:05:30.838Z,62.16
2023-05-14T22:08:34.407Z,62.43
2023-05-14T22:11:39.524Z,62.42
2023-05-14T22:14:42.875Z,62.28
2023-05-14T22:17:46.904Z,62.92
2023-05-14T22:20:50.383Z,62.54
2023-05-14T22:23:53.988Z,63.53
2023-05-14T22:26:58.866Z,63.62
2023-05-14T22:30:02.603Z,63.13
2023-05-14T22:33:06.362Z,63.35
2023-05-14T22:36:11.518Z,63.53
2023-05-14T22:39:15.040Z,63.70
2023-05-14T22:42:20.397Z,63.85
2023-05-14T22:45:25.159Z,63.42
2023-05-14T22:48:29.098Z,63.88
2023-05-14T22:51:32.735Z,63.84
2023-05-14T22:54:36.389Z,64.34
2023-05-14T22:57:41.262Z,64.14
2023-05-14T23:00:44.950Z,64.30
2023-05-14T23:03:48.426Z,64.19
2023-05-14T23:06:52.153Z,64.86
2023-05-14T23:09:55.728Z,65.27
2023-05-14T23:13:00.792Z,65.30
2023-05-14T23:16:05.997Z,65.17
2023-05-14T23:19:09.902Z,65.24
2023-05-14T23:22:13.618Z,65.59
2023-05-14T23:25:17.486Z,65.45
2023-05-14T23:28:22.704Z,65.59
2023-05-14T23:31:26.388Z,65.91
2023-05-14T23:34:29.986Z,65.45
2023-05-14T23:37:36.766Z,66.34
2023-05-14T23:40:40.279Z,66.19
2023-05-14T23:43:45.394Z,66.52
2023-05-14T23:46:49.203Z,66.25
2023-05-14T23:49:53.006Z,66.41
2023-05-14T23:52:57.158Z,66.63
2023-05-14T23:56:01.116Z,66.29
2023-05-14T23:59:06.301Z,67.01
